createdAt,value
2019-03-05T00:02:07.875Z,98509.00
2019-03-05T00:04:39.404Z,98504.00
2019-03-05T00:07:10.952Z,98515.00
2019-03-05T00:09:42.480Z,98503.00
2019-03-05T00:12:13.978Z,98518.00
2019-03-05T00:14:45.439Z,98506.00
2019-03-05T00:17:16.949Z,98526.00
2019-03-05T00:19:48.382Z,98527.00
2019-03-05T00:22:19.906Z,98531.00
2019-03-05T00:25:09.684Z,98508.00
2019-03-05T00:28:26.849Z,98519.00
2019-03-05T00:31:10.830Z,98512.00
2019-03-05T00:34:45.159Z,98508.00
2019-03-05T00:38:10.743Z,98518.00
2019-03-05T00:41:17.949Z,98529.00
2019-03-05T00:44:46.332Z,98520.00
2019-03-05T00:48:15.170Z,98529.00
2019-03-05T00:51:44.713Z,98535.00
2019-03-05T00:55:12.698Z,98535.00
2019-03-05T00:58:34.703Z,98526.00
2019-03-05T01:02:27.428Z,98540.00
2019-03-05T01:06:05.636Z,98553.00
2019-03-05T01:08:37.138Z,98557.00
2019-03-05T01:11:09.066Z,98552.00
2019-03-05T01:13:41.947Z,98555.00
2019-03-05T01:16:15.052Z,98557.00
2019-03-05T01:18:46.676Z,98554.00
2019-03-05T01:21:18.537Z,98550.00
2019-03-05T01:23:50.091Z,98563.00
2019-03-05T01:26:21.660Z,98561.00
2019-03-05T01:28:55.527Z,98565.00
2019-03-05T01:31:50.246Z,98554.00
2019-03-05T01:34:39.700Z,98563.00
2019-03-05T01:37:12.005Z,98556.00
2019-03-05T01:40:14.812Z,98564.00
2019-03-05T01:42:46.370Z,98567.00
2019-03-05T01:45:19.038Z,98563.00
2019-03-05T01:47:50.665Z,98561.00
2019-03-05T01:50:22.277Z,98561.00
2019-03-05T01:52:53.809Z,98571.00
2019-03-05T01:55:25.377Z,98573.00
2019-03-05T01:57:56.858Z,98573.00
2019-03-05T02:00:28.369Z,98588.00
2019-03-05T02:03:00.030Z,98600.00
2019-03-05T02:05:31.518Z,98600.00
2019-03-05T02:08:03.035Z,98592.00
2019-03-05T02:10:34.587Z,98588.00
2019-03-05T02:13:06.183Z,98589.00
2019-03-05T02:15:37.643Z,98597.00
2019-03-05T02:18:19.210Z,98594.00
2019-03-05T02:20:50.997Z,98600.00
2019-03-05T02:24:03.769Z,98593.00
2019-03-05T02:27:44.665Z,98591.00
2019-03-05T02:31:12.981Z,98586.00
2019-03-05T02:34:17.757Z,98595.00
2019-03-05T02:37:47.366Z,98592.00
2019-03-05T02:40:50.147Z,98599.00
2019-03-05T02:44:15.940Z,98598.00
2019-03-05T02:48:05.461Z,98609.00
2019-03-05T02:51:51.595Z,98616.00
2019-03-05T02:55:29.504Z,98600.00
2019-03-05T02:57:58.547Z,98608.00
2019-03-05T03:00:47.623Z,98612.00
2019-03-05T03:03:25.992Z,98615.00
2019-03-05T03:06:05.315Z,98612.00
2019-03-05T03:08:41.962Z,98611.00
2019-03-05T03:11:13.578Z,98610.00
2019-03-05T03:13:45.115Z,98604.00
2019-03-05T03:16:16.607Z,98619.00
2019-03-05T03:18:48.247Z,98615.00
2019-03-05T03:21:19.700Z,98619.00
2019-03-05T03:23:51.206Z,98617.00
2019-03-05T03:26:23.639Z,98620.00
2019-03-05T03:28:55.118Z,98623.00
2019-03-05T03:31:26.560Z,98630.00
2019-03-05T03:33:58.110Z,98632.00
2019-03-05T03:36:29.581Z,98620.00
2019-03-05T03:39:01.093Z,98636.00
2019-03-05T03:41:34.249Z,98630.00
2019-03-05T03:44:05.772Z,98631.00
2019-03-05T03:46:37.432Z,98629.00
2019-03-05T03:49:08.921Z,98627.00
2019-03-05T03:51:40.425Z,98631.00
2019-03-05T03:54:11.974Z,98640.00
2019-03-05T03:56:43.442Z,98642.00
2019-03-05T03:59:16.008Z,98638.00
2019-03-05T04:01:48.567Z,98652.00
2019-03-05T04:04:20.041Z,98651.00
2019-03-05T04:06:51.525Z,98655.00
2019-03-05T04:09:22.978Z,98663.00
2019-03-05T04:11:54.435Z,98665.00
2019-03-05T04:14:25.916Z,98669.00
2019-03-05T04:16:57.394Z,98679.00
2019-03-05T04:19:32.275Z,98690.00
2019-03-05T04:22:05.043Z,98672.00
2019-03-05T04:24:36.475Z,98677.00
2019-03-05T04:27:07.946Z,98683.00
2019-03-05T04:29:39.375Z,98674.00
2019-03-05T04:32:10.842Z,98693.00
2019-03-05T04:34:42.603Z,98686.00
2019-03-05T04:37:14.137Z,98702.00
2019-03-05T04:39:45.683Z,98686.00
2019-03-05T04:42:17.393Z,98686.00
2019-03-05T04:44:57.684Z,98708.00
2019-03-05T04:47:29.247Z,98715.00
2019-03-05T04:50:08.970Z,98703.00
2019-03-05T04:52:40.410Z,98704.00
2019-03-05T04:55:16.760Z,98705.00
2019-03-05T04:57:48.262Z,98711.00
2019-03-05T05:00:20.076Z,98711.00
2019-03-05T05:02:53.972Z,98708.00
2019-03-05T05:05:27.472Z,98721.00
2019-03-05T05:07:59.089Z,98717.00
2019-03-05T05:10:30.544Z,98721.00
2019-03-05T05:13:02.799Z,98722.00
2019-03-05T05:15:36.322Z,98729.00
2019-03-05T05:18:13.492Z,98721.00
2019-03-05T05:20:46.249Z,98725.00
2019-03-05T05:23:24.714Z,98724.00
2019-03-05T05:25:56.175Z,98739.00
2019-03-05T05:28:29.330Z,98743.00
2019-03-05T05:31:00.857Z,98744.00
2019-03-05T05:33:36.915Z,98763.00
2019-03-05T05:36:08.414Z,98756.00
2019-03-05T05:38:43.104Z,98761.00
2019-03-05T05:41:19.444Z,98761.00
2019-03-05T05:44:00.625Z,98771.00
2019-03-05T05:46:32.439Z,98773.00
2019-03-05T05:49:04.722Z,98792.00
2019-03-05T05:51:36.230Z,98792.00
2019-03-05T05:54:13.586Z,98780.00
2019-03-05T05:56:46.737Z,98778.00
2019-03-05T05:59:23.868Z,98793.00
2019-03-05T06:01:55.326Z,98798.00
2019-03-05T06:04:26.895Z,98799.00
2019-03-05T06:06:58.466Z,98810.00
2019-03-05T06:09:30.044Z,98797.00
2019-03-05T06:12:01.568Z,98791.00
2019-03-05T06:14:33.094Z,98804.00
2019-03-05T06:17:04.622Z,98805.00
2019-03-05T06:19:36.401Z,98814.00
2019-03-05T06:22:18.557Z,98818.00
2019-03-05T06:24:55.968Z,98816.00
2019-03-05T06:27:27.477Z,98818.00
2019-03-05T06:29:59.972Z,98820.00
2019-03-05T06:32:31.618Z,98818.00
2019-03-05T06:35:03.540Z,98826.00
2019-03-05T06:37:35.121Z,98836.00
2019-03-05T06:40:09.872Z,98818.00
2019-03-05T06:42:41.348Z,98847.00
2019-03-05T06:45:16.261Z,98838.00
2019-03-05T06:47:47.842Z,98838.00
2019-03-05T06:50:21.679Z,98850.00
2019-03-05T06:52:53.221Z,98850.00
2019-03-05T06:55:27.049Z,98857.00
2019-03-05T06:57:58.863Z,98862.00
2019-03-05T07:00:35.140Z,98867.00
2019-03-05T07:03:07.433Z,98869.00
2019-03-05T07:06:32.509Z,98870.00
2019-03-05T07:09:43.128Z,98873.00
2019-03-05T07:13:06.180Z,98880.00
2019-03-05T07:16:26.106Z,98884.00
2019-03-05T07:19:26.940Z,98882.00
2019-03-05T07:22:33.470Z,98896.00
2019-03-05T07:25:08.956Z,98883.00
2019-03-05T07:27:52.530Z,98891.00
2019-03-05T07:30:26.322Z,98901.00
2019-03-05T07:32:59.967Z,98891.00
2019-03-05T07:35:33.378Z,98902.00
2019-03-05T07:38:07.286Z,98884.00
2019-03-05T07:40:42.709Z,98907.00
2019-03-05T07:43:14.716Z,98896.00
2019-03-05T07:45:46.385Z,98922.00
2019-03-05T07:48:23.988Z,98917.00
2019-03-05T07:50:57.088Z,98918.00
2019-03-05T07:53:28.577Z,98909.00
2019-03-05T07:56:00.027Z,98923.00
2019-03-05T07:58:31.628Z,98949.00
2019-03-05T08:01:03.121Z,98925.00
2019-03-05T08:03:34.698Z,98919.00
2019-03-05T08:06:06.280Z,98935.00
2019-03-05T08:09:31.649Z,98929.00
2019-03-05T08:12:55.579Z,98933.00
2019-03-05T08:16:19.509Z,98942.00
2019-03-05T08:18:52.007Z,98938.00
2019-03-05T08:21:23.831Z,98956.00
2019-03-05T08:23:55.418Z,98952.00
2019-03-05T08:26:26.975Z,98960.00
2019-03-05T08:29:14.437Z,98967.00
2019-03-05T08:31:46.040Z,98970.00
2019-03-05T08:34:17.646Z,98976.00
2019-03-05T08:36:49.361Z,98964.00
2019-03-05T08:39:21.084Z,98964.00
2019-03-05T08:41:52.830Z,98977.00
2019-03-05T08:44:24.430Z,98986.00
2019-03-05T08:46:57.158Z,98989.00
2019-03-05T08:49:29.355Z,98991.00
2019-03-05T08:52:01.031Z,99002.00
2019-03-05T08:54:33.039Z,99007.00
2019-03-05T08:57:05.882Z,99005.00
2019-03-05T08:59:37.407Z,99022.00
2019-03-05T09:02:09.030Z,99004.00
2019-03-05T09:04:41.612Z,98992.00
2019-03-05T09:07:13.229Z,99009.00
2019-03-05T09:09:44.759Z,99026.00
2019-03-05T09:12:16.306Z,99021.00
2019-03-05T09:14:53.580Z,99025.00
2019-03-05T09:17:25.162Z,99034.00
2019-03-05T09:19:56.705Z,99031.00
2019-03-05T09:22:28.352Z,99032.00
2019-03-05T09:24:59.931Z,99036.00
2019-03-05T09:27:31.597Z,99048.00
2019-03-05T09:30:03.737Z,99037.00
2019-03-05T09:32:36.564Z,99041.00
2019-03-05T09:35:09.461Z,98987.00
2019-03-05T09:37:41.351Z,99039.00
2019-03-05T09:40:18.439Z,99052.00
2019-03-05T09:42:50.353Z,99042.00
2019-03-05T09:45:22.583Z,99061.00
2019-03-05T09:47:54.106Z,99056.00
2019-03-05T09:50:25.541Z,99075.00
2019-03-05T09:52:57.245Z,99057.00
2019-03-05T09:55:34.403Z,99071.00
2019-03-05T09:58:08.915Z,99068.00
2019-03-05T10:00:40.787Z,99080.00
2019-03-05T10:03:12.555Z,99096.00
2019-03-05T10:05:47.181Z,99081.00
2019-03-05T10:08:39.518Z,99089.00
2019-03-05T10:11:15.368Z,99104.00
2019-03-05T10:13:49.323Z,99105.00
2019-03-05T10:16:25.438Z,99102.00
2019-03-05T10:19:01.292Z,99116.00
2019-03-05T10:21:46.184Z,99119.00
2019-03-05T10:24:13.385Z,99122.00
2019-03-05T10:26:45.328Z,99112.00
2019-03-05T10:29:16.942Z,99122.00
2019-03-05T10:31:48.433Z,99134.00
2019-03-05T10:34:19.990Z,99127.00
2019-03-05T10:36:51.622Z,99124.00
2019-03-05T10:39:31.034Z,99123.00
2019-03-05T10:42:03.663Z,99134.00
2019-03-05T10:44:35.800Z,99132.00
2019-03-05T10:47:07.799Z,99141.00
2019-03-05T10:49:45.212Z,99156.00
2019-03-05T10:52:17.017Z,99162.00
2019-03-05T10:54:49.174Z,99146.00
2019-03-05T10:57:20.780Z,99151.00
2019-03-05T10:59:52.406Z,99162.00
2019-03-05T11:02:23.934Z,99161.00
2019-03-05T11:04:55.463Z,99159.00
2019-03-05T11:07:26.942Z,99172.00
2019-03-05T11:09:58.455Z,99163.00
2019-03-05T11:12:29.927Z,99186.00
2019-03-05T11:15:01.481Z,99181.00
2019-03-05T11:17:34.633Z,99185.00
2019-03-05T11:20:08.223Z,99182.00
2019-03-05T11:22:40.467Z,99195.00
2019-03-05T11:25:13.210Z,99198.00
2019-03-05T11:27:44.774Z,99194.00
2019-03-05T11:30:35.287Z,99190.00
2019-03-05T11:33:00.541Z,99204.00
2019-03-05T11:35:35.245Z,99200.00
2019-03-05T11:38:17.262Z,99208.00
2019-03-05T11:40:49.373Z,99218.00
2019-03-05T11:43:21.125Z,99213.00
2019-03-05T11:45:52.663Z,99215.00
2019-03-05T11:48:24.525Z,99216.00
2019-03-05T11:50:57.467Z,99232.00
2019-03-05T11:53:28.946Z,99232.00
2019-03-05T11:56:00.430Z,99230.00
2019-03-05T11:58:31.840Z,99236.00
2019-03-05T12:01:07.466Z,99238.00
2019-03-05T12:03:39.226Z,99233.00
2019-03-05T12:06:13.774Z,99250.00
2019-03-05T12:08:45.244Z,99238.00
2019-03-05T12:11:20.344Z,99243.00
2019-03-05T12:13:51.851Z,99259.00
2019-03-05T12:16:23.382Z,99253.00
2019-03-05T12:18:55.003Z,99258.00
2019-03-05T12:21:27.011Z,99264.00
2019-03-05T12:23:58.548Z,99260.00
2019-03-05T12:26:30.228Z,99254.00
2019-03-05T12:29:03.077Z,99262.00
2019-03-05T12:31:34.717Z,99265.00
2019-03-05T12:34:06.387Z,99287.00
2019-03-05T12:36:37.843Z,99270.00
2019-03-05T12:39:12.842Z,99281.00
2019-03-05T12:41:44.423Z,99279.00
2019-03-05T12:44:18.614Z,99280.00
2019-03-05T12:46:56.243Z,99291.00
2019-03-05T12:49:27.794Z,99297.00
2019-03-05T12:51:59.343Z,99300.00
2019-03-05T12:54:32.045Z,99306.00
2019-03-05T12:57:06.337Z,99315.00
2019-03-05T12:59:38.078Z,99318.00
2019-03-05T13:02:09.718Z,99305.00
2019-03-05T13:04:41.358Z,99321.00
2019-03-05T13:07:14.226Z,99311.00
2019-03-05T13:09:52.607Z,99331.00
2019-03-05T13:12:24.552Z,99327.00
2019-03-05T13:14:58.045Z,99327.00
2019-03-05T13:17:30.742Z,99342.00
2019-03-05T13:20:05.557Z,99342.00
2019-03-05T13:22:38.654Z,99347.00
2019-03-05T13:25:10.938Z,99347.00
2019-03-05T13:27:42.550Z,99344.00
2019-03-05T13:30:21.935Z,99363.00
2019-03-05T13:32:54.137Z,99351.00
2019-03-05T13:35:25.486Z,99355.00
2019-03-05T13:37:58.759Z,99377.00
2019-03-05T13:40:34.072Z,99380.00
2019-03-05T13:43:03.673Z,99388.00
2019-03-05T13:45:36.506Z,99389.00
2019-03-05T13:48:30.674Z,99394.00
2019-03-05T13:52:15.977Z,99388.00
2019-03-05T13:55:47.902Z,99400.00
2019-03-05T13:59:22.438Z,99400.00
2019-03-05T14:01:54.267Z,99416.00
2019-03-05T14:04:49.212Z,99410.00
2019-03-05T14:08:19.704Z,99409.00
2019-03-05T14:10:51.876Z,99415.00
2019-03-05T14:13:23.700Z,99414.00
2019-03-05T14:15:55.463Z,99428.00
2019-03-05T14:18:31.144Z,99425.00
2019-03-05T14:21:06.774Z,99431.00
2019-03-05T14:23:38.341Z,99428.00
2019-03-05T14:26:12.004Z,99436.00
2019-03-05T14:28:44.785Z,99442.00
2019-03-05T14:31:16.337Z,99465.00
2019-03-05T14:33:50.313Z,99454.00
2019-03-05T14:36:21.097Z,99453.00
2019-03-05T14:38:52.633Z,99465.00
2019-03-05T14:41:25.166Z,99462.00
2019-03-05T14:43:57.053Z,99466.00
2019-03-05T14:46:29.047Z,99460.00
2019-03-05T14:49:00.822Z,99468.00
2019-03-05T14:51:33.270Z,99458.00
2019-03-05T14:54:11.890Z,99457.00
2019-03-05T14:56:51.078Z,99454.00
2019-03-05T14:59:24.891Z,99464.00
2019-03-05T15:01:56.724Z,99460.00
2019-03-05T15:04:28.419Z,99463.00
2019-03-05T15:07:00.983Z,99466.00
2019-03-05T15:12:26.719Z,99458.00
2019-03-05T15:14:58.433Z,99466.00
2019-03-05T15:17:30.054Z,99478.00
2019-03-05T15:20:02.011Z,99477.00
2019-03-05T15:22:42.952Z,99472.00
2019-03-05T15:25:15.266Z,99479.00
2019-03-05T15:27:46.808Z,99486.00
2019-03-05T15:30:20.332Z,99483.00
2019-03-05T15:32:51.879Z,99488.00
2019-03-05T15:35:29.341Z,99492.00
2019-03-05T15:38:03.148Z,99499.00
2019-03-05T15:40:34.802Z,99509.00
2019-03-05T15:43:09.928Z,99517.00
2019-03-05T15:45:41.636Z,99512.00
2019-03-05T15:48:13.617Z,99510.00
2019-03-05T15:50:50.831Z,99519.00
2019-03-05T15:53:27.727Z,99513.00
2019-03-05T15:56:02.323Z,99519.00
2019-03-05T15:58:36.128Z,99531.00
2019-03-05T16:01:18.763Z,99524.00
2019-03-05T16:03:44.510Z,99536.00
2019-03-05T16:06:24.183Z,99510.00
2019-03-05T16:09:09.385Z,99540.00
2019-03-05T16:11:44.542Z,99545.00
2019-03-05T16:14:18.800Z,99541.00
2019-03-05T16:16:55.732Z,99550.00
2019-03-05T16:22:19.364Z,99562.00
2019-03-05T16:24:51.043Z,99570.00
2019-03-05T16:27:22.642Z,99560.00
2019-03-05T16:29:55.795Z,99568.00
2019-03-05T16:32:50.090Z,99564.00
2019-03-05T16:35:40.395Z,99581.00
2019-03-05T16:38:29.788Z,99578.00
2019-03-05T16:41:29.486Z,99577.00
2019-03-05T16:47:32.859Z,99596.00
2019-03-05T16:50:25.201Z,99591.00
2019-03-05T16:53:15.811Z,99593.00
2019-03-05T16:56:12.770Z,99600.00
2019-03-05T16:59:10.862Z,99611.00
2019-03-05T17:02:00.272Z,99616.00
2019-03-05T17:05:03.834Z,99625.00
2019-03-05T17:07:52.984Z,99624.00
2019-03-05T17:10:49.815Z,99634.00
2019-03-05T17:13:23.185Z,99640.00
2019-03-05T17:15:59.968Z,99647.00
2019-03-05T17:18:31.523Z,99642.00
2019-03-05T17:21:04.391Z,99650.00
2019-03-05T17:23:35.952Z,99648.00
2019-03-05T17:26:07.565Z,99649.00
2019-03-05T17:28:42.223Z,99655.00
2019-03-05T17:31:14.408Z,99659.00
2019-03-05T17:33:45.903Z,99660.00
2019-03-05T17:36:17.539Z,99669.00
2019-03-05T17:38:49.446Z,99679.00
2019-03-05T17:41:21.351Z,99680.00
2019-03-05T17:43:52.918Z,99684.00
2019-03-05T17:46:24.557Z,99687.00
2019-03-05T17:48:56.340Z,99697.00
2019-03-05T17:51:28.081Z,99699.00
2019-03-05T17:53:59.925Z,99701.00
2019-03-05T17:56:31.499Z,99702.00
2019-03-05T17:59:03.101Z,99701.00
2019-03-05T18:01:36.758Z,99704.00
2019-03-05T18:04:08.203Z,99707.00
2019-03-05T18:06:39.808Z,99715.00
2019-03-05T18:09:11.905Z,99718.00
2019-03-05T18:11:45.073Z,99719.00
2019-03-05T18:14:16.601Z,99721.00
2019-03-05T18:16:48.071Z,99739.00
2019-03-05T18:19:20.738Z,99746.00
2019-03-05T18:21:52.683Z,99743.00
2019-03-05T18:24:25.928Z,99744.00
2019-03-05T18:26:58.150Z,99749.00
2019-03-05T18:29:30.051Z,99760.00
2019-03-05T18:32:01.810Z,99750.00
2019-03-05T18:34:33.811Z,99753.00
2019-03-05T18:37:05.446Z,99745.00
2019-03-05T18:39:38.156Z,99752.00
2019-03-05T18:42:09.868Z,99760.00
2019-03-05T18:44:43.839Z,99770.00
2019-03-05T18:47:15.435Z,99765.00
2019-03-05T18:49:47.073Z,99760.00
2019-03-05T18:52:18.684Z,99767.00
2019-03-05T18:54:52.696Z,99772.00
2019-03-05T18:57:26.354Z,99774.00
2019-03-05T18:59:58.097Z,99782.00
2019-03-05T19:02:29.837Z,99783.00
2019-03-05T19:05:01.591Z,99789.00
2019-03-05T19:07:37.251Z,99796.00
2019-03-05T19:10:13.245Z,99794.00
2019-03-05T19:12:46.107Z,99803.00
2019-03-05T19:15:23.668Z,99805.00
2019-03-05T19:17:55.452Z,99804.00
2019-03-05T19:20:27.255Z,99809.00
2019-03-05T19:22:59.794Z,99819.00
2019-03-05T19:25:31.883Z,99826.00
2019-03-05T19:28:05.626Z,99823.00
2019-03-05T19:30:38.284Z,99829.00
2019-03-05T19:33:10.294Z,99829.00
2019-03-05T19:35:41.966Z,99826.00
2019-03-05T19:38:13.936Z,99837.00
2019-03-05T19:40:45.681Z,99832.00
2019-03-05T19:43:21.619Z,99841.00
2019-03-05T19:45:54.823Z,99841.00
2019-03-05T19:48:27.748Z,99845.00
2019-03-05T19:50:59.440Z,99851.00
2019-03-05T19:53:33.480Z,99854.00
2019-03-05T19:56:06.873Z,99848.00
2019-03-05T19:58:39.839Z,99855.00
2019-03-05T20:01:17.324Z,99860.00
2019-03-05T20:03:49.082Z,99860.00
2019-03-05T20:06:21.295Z,99858.00
2019-03-05T20:08:53.456Z,99867.00
2019-03-05T20:11:25.299Z,99869.00
2019-03-05T20:13:56.914Z,99869.00
2019-03-05T20:16:28.489Z,99874.00
2019-03-05T20:19:03.224Z,99874.00
2019-03-05T20:21:36.351Z,99879.00
2019-03-05T20:24:08.210Z,99797.00
2019-03-05T20:26:40.021Z,99880.00
2019-03-05T20:29:12.716Z,99884.00
2019-03-05T20:31:44.518Z,99893.00
2019-03-05T20:34:16.314Z,99899.00
2019-03-05T20:36:48.219Z,99906.00
2019-03-05T20:39:20.224Z,99905.00
2019-03-05T20:41:52.063Z,99905.00
2019-03-05T20:44:26.892Z,99917.00
2019-03-05T20:46:59.605Z,99908.00
2019-03-05T20:49:31.483Z,99913.00
2019-03-05T20:52:05.835Z,99922.00
2019-03-05T20:54:37.745Z,99924.00
2019-03-05T20:57:09.526Z,99921.00
2019-03-05T20:59:43.271Z,99919.00
2019-03-05T21:02:14.951Z,99916.00
2019-03-05T21:04:47.058Z,99925.00
2019-03-05T21:07:18.609Z,99926.00
2019-03-05T21:09:50.292Z,99934.00
2019-03-05T21:12:22.004Z,99937.00
2019-03-05T21:14:53.689Z,99935.00
2019-03-05T21:17:25.390Z,99940.00
2019-03-05T21:19:57.349Z,99944.00
2019-03-05T21:22:28.943Z,99949.00
2019-03-05T21:25:00.607Z,99950.00
2019-03-05T21:27:33.689Z,99955.00
2019-03-05T21:30:09.203Z,99915.00
2019-03-05T21:32:42.623Z,99949.00
2019-03-05T21:35:20.136Z,99954.00
2019-03-05T21:37:58.944Z,99953.00
2019-03-05T21:40:39.329Z,99961.00
2019-03-05T21:43:11.410Z,99956.00
2019-03-05T21:45:45.184Z,99958.00
2019-03-05T21:48:16.995Z,99956.00
2019-03-05T21:50:48.748Z,99953.00
2019-03-05T21:53:20.755Z,99957.00
2019-03-05T21:55:52.389Z,99956.00
2019-03-05T21:58:43.120Z,99965.00
2019-03-05T22:01:18.725Z,99966.00
2019-03-05T22:03:52.915Z,99968.00
2019-03-05T22:06:26.591Z,99966.00
2019-03-05T22:08:58.498Z,99972.00
2019-03-05T22:11:30.259Z,99971.00
2019-03-05T22:14:02.251Z,99971.00
2019-03-05T22:16:34.659Z,99979.00
2019-03-05T22:19:07.472Z,99971.00
2019-03-05T22:21:39.372Z,99980.00
2019-03-05T22:24:11.447Z,99978.00
2019-03-05T22:26:43.490Z,99980.00
2019-03-05T22:29:19.097Z,99973.00
2019-03-05T22:31:50.926Z,99981.00
2019-03-05T22:34:26.363Z,99982.00
2019-03-05T22:36:57.959Z,99985.00
2019-03-05T22:39:35.903Z,99985.00
2019-03-05T22:42:15.211Z,99975.00
2019-03-05T22:44:46.967Z,99988.00
2019-03-05T22:47:24.661Z,99985.00
2019-03-05T22:50:00.189Z,99996.00
2019-03-05T22:52:35.354Z,99985.00
2019-03-05T22:55:08.926Z,99993.00
2019-03-05T22:57:41.757Z,99994.00
2019-03-05T23:01:02.858Z,99986.00
2019-03-05T23:03:36.010Z,99996.00
2019-03-05T23:06:10.101Z,99991.00
2019-03-05T23:08:41.944Z,99997.00
2019-03-05T23:11:15.913Z,100001.00
2019-03-05T23:13:48.643Z,100001.00
2019-03-05T23:16:21.746Z,100002.00
2019-03-05T23:18:54.092Z,99993.00
2019-03-05T23:21:28.472Z,99996.00
2019-03-05T23:24:00.159Z,100000.00
2019-03-05T23:26:33.586Z,100002.00
2019-03-05T23:29:07.336Z,100003.00
2019-03-05T23:31:41.062Z,100005.00
2019-03-05T23:34:18.311Z,100009.00
2019-03-05T23:36:45.860Z,100007.00
2019-03-05T23:39:21.040Z,100012.00
2019-03-05T23:42:32.789Z,100013.00
2019-03-05T23:45:26.707Z,100016.00
2019-03-05T23:48:26.869Z,100016.00
2019-03-05T23:52:28.656Z,100005.00
2019-03-05T23:55:46.920Z,100012.00
2019-03-05T23:58:20.269Z,100022.00
